sensor_id;sensor_type;location;lat;lon;timestamp;P1;durP1;ratioP1;P2;durP2;ratioP2
15946;SDS011;8072;52.554;7.966;2023-06-10T00:02:08;27.80;;;14.52;;
15946;SDS011;8072;52.554;7.966;2023-06-10T00:04:34;33.95;;;17.98;;
15946;SDS011;8072;52.554;7.966;2023-06-10T00:07:05;24.67;;;13.80;;
15946;SDS011;8072;52.554;7.966;2023-06-10T00:09:36;35.00;;;16.85;;
15946;SDS011;8072;52.554;7.966;2023-06-10T00:12:06;28.65;;;14.10;;
15946;SDS011;8072;52.554;7.966;2023-06-10T00:14:38;21.33;;;10.77;;
15946;SDS011;8072;52.554;7.966;2023-06-10T00:17:05;15.40;;;8.15;;
15946;SDS011;8072;52.554;7.966;2023-06-10T00:19:34;12.40;;;6.18;;
15946;SDS011;8072;52.554;7.966;2023-06-10T00:22:00;13.25;;;5.65;;
15946;SDS011;8072;52.554;7.966;2023-06-10T00:24:26;12.20;;;5.57;;
15946;SDS011;8072;52.554;7.966;2023-06-10T00:26:51;7.00;;;4.80;;
15946;SDS011;8072;52.554;7.966;2023-06-10T00:29:17;12.40;;;5.55;;
15946;SDS011;8072;52.554;7.966;2023-06-10T00:31:45;9.88;;;4.72;;
15946;SDS011;8072;52.554;7.966;2023-06-10T00:34:12;8.30;;;4.68;;
15946;SDS011;8072;52.554;7.966;2023-06-10T00:36:37;11.32;;;5.35;;
15946;SDS011;8072;52.554;7.966;2023-06-10T00:39:03;7.85;;;4.43;;
15946;SDS011;8072;52.554;7.966;2023-06-10T00:41:31;7.50;;;4.85;;
15946;SDS011;8072;52.554;7.966;2023-06-10T00:43:59;9.77;;;5.10;;
15946;SDS011;8072;52.554;7.966;2023-06-10T00:46:25;46.70;;;22.25;;
15946;SDS011;8072;52.554;7.966;2023-06-10T00:48:52;41.38;;;21.38;;
15946;SDS011;8072;52.554;7.966;2023-06-10T00:51:17;25.05;;;13.30;;
15946;SDS011;8072;52.554;7.966;2023-06-10T00:53:44;11.40;;;8.13;;
15946;SDS011;8072;52.554;7.966;2023-06-10T00:56:10;13.35;;;7.78;;
15946;SDS011;8072;52.554;7.966;2023-06-10T00:58:36;13.75;;;7.25;;
15946;SDS011;8072;52.554;7.966;2023-06-10T01:01:02;11.68;;;6.78;;
15946;SDS011;8072;52.554;7.966;2023-06-10T01:03:29;14.00;;;7.15;;
15946;SDS011;8072;52.554;7.966;2023-06-10T01:06:08;15.63;;;8.18;;
15946;SDS011;8072;52.554;7.966;2023-06-10T01:09:11;11.95;;;6.90;;
15946;SDS011;8072;52.554;7.966;2023-06-10T01:11:57;10.27;;;6.30;;
15946;SDS011;8072;52.554;7.966;2023-06-10T01:14:35;9.88;;;5.07;;
15946;SDS011;8072;52.554;7.966;2023-06-10T01:17:01;6.78;;;5.68;;
15946;SDS011;8072;52.554;7.966;2023-06-10T01:19:28;10.55;;;4.95;;
15946;SDS011;8072;52.554;7.966;2023-06-10T01:21:56;8.07;;;4.82;;
15946;SDS011;8072;52.554;7.966;2023-06-10T01:24:25;6.82;;;4.68;;
15946;SDS011;8072;52.554;7.966;2023-06-10T01:26:52;10.00;;;4.80;;
15946;SDS011;8072;52.554;7.966;2023-06-10T01:29:28;9.40;;;5.05;;
15946;SDS011;8072;52.554;7.966;2023-06-10T01:32:21;9.90;;;5.30;;
15946;SDS011;8072;52.554;7.966;2023-06-10T01:34:59;8.15;;;4.85;;
15946;SDS011;8072;52.554;7.966;2023-06-10T01:37:27;8.73;;;4.32;;
15946;SDS011;8072;52.554;7.966;2023-06-10T01:39:55;9.55;;;4.57;;
15946;SDS011;8072;52.554;7.966;2023-06-10T01:42:23;6.13;;;4.32;;
15946;SDS011;8072;52.554;7.966;2023-06-10T01:44:50;9.52;;;4.75;;
15946;SDS011;8072;52.554;7.966;2023-06-10T01:47:16;8.35;;;5.00;;
15946;SDS011;8072;52.554;7.966;2023-06-10T01:49:42;9.45;;;5.15;;
15946;SDS011;8072;52.554;7.966;2023-06-10T01:52:08;8.20;;;5.22;;
15946;SDS011;8072;52.554;7.966;2023-06-10T01:54:34;6.82;;;4.45;;
15946;SDS011;8072;52.554;7.966;2023-06-10T01:57:01;7.05;;;4.43;;
15946;SDS011;8072;52.554;7.966;2023-06-10T01:59:27;9.07;;;4.90;;
15946;SDS011;8072;52.554;7.966;2023-06-10T02:01:52;8.25;;;5.07;;
15946;SDS011;8072;52.554;7.966;2023-06-10T02:04:18;6.22;;;4.78;;
15946;SDS011;8072;52.554;7.966;2023-06-10T02:06:44;8.55;;;4.72;;
15946;SDS011;8072;52.554;7.966;2023-06-10T02:09:10;9.63;;;5.05;;
15946;SDS011;8072;52.554;7.966;2023-06-10T02:11:36;11.00;;;4.90;;
15946;SDS011;8072;52.554;7.966;2023-06-10T02:14:02;6.77;;;4.43;;
15946;SDS011;8072;52.554;7.966;2023-06-10T02:16:28;8.40;;;5.43;;
15946;SDS011;8072;52.554;7.966;2023-06-10T02:18:54;7.50;;;4.50;;
15946;SDS011;8072;52.554;7.966;2023-06-10T02:21:20;11.60;;;5.03;;
15946;SDS011;8072;52.554;7.966;2023-06-10T02:23:46;11.67;;;5.93;;
15946;SDS011;8072;52.554;7.966;2023-06-10T02:26:13;9.83;;;5.40;;
15946;SDS011;8072;52.554;7.966;2023-06-10T02:28:42;10.33;;;5.33;;
15946;SDS011;8072;52.554;7.966;2023-06-10T02:31:08;10.23;;;5.20;;
15946;SDS011;8072;52.554;7.966;2023-06-10T02:33:34;9.60;;;5.27;;
15946;SDS011;8072;52.554;7.966;2023-06-10T02:36:00;11.53;;;5.73;;
15946;SDS011;8072;52.554;7.966;2023-06-10T02:38:25;7.93;;;4.80;;
15946;SDS011;8072;52.554;7.966;2023-06-10T02:40:51;10.07;;;4.93;;
15946;SDS011;8072;52.554;7.966;2023-06-10T02:43:18;16.70;;;5.17;;
15946;SDS011;8072;52.554;7.966;2023-06-10T02:45:44;8.33;;;5.57;;
15946;SDS011;8072;52.554;7.966;2023-06-10T02:48:10;9.43;;;5.20;;
15946;SDS011;8072;52.554;7.966;2023-06-10T02:50:36;12.60;;;5.73;;
15946;SDS011;8072;52.554;7.966;2023-06-10T02:53:03;9.73;;;5.63;;
15946;SDS011;8072;52.554;7.966;2023-06-10T02:55:29;8.93;;;5.77;;
15946;SDS011;8072;52.554;7.966;2023-06-10T02:57:56;8.53;;;5.50;;
15946;SDS011;8072;52.554;7.966;2023-06-10T03:00:21;10.80;;;5.40;;
15946;SDS011;8072;52.554;7.966;2023-06-10T03:02:49;9.00;;;5.27;;
15946;SDS011;8072;52.554;7.966;2023-06-10T03:05:16;13.23;;;5.83;;
15946;SDS011;8072;52.554;7.966;2023-06-10T03:07:45;9.13;;;5.80;;
15946;SDS011;8072;52.554;7.966;2023-06-10T03:10:18;8.93;;;5.33;;
15946;SDS011;8072;52.554;7.966;2023-06-10T03:12:44;11.00;;;5.40;;
15946;SDS011;8072;52.554;7.966;2023-06-10T03:15:13;8.90;;;5.63;;
15946;SDS011;8072;52.554;7.966;2023-06-10T03:17:42;13.57;;;5.90;;
15946;SDS011;8072;52.554;7.966;2023-06-10T03:20:08;9.47;;;5.50;;
15946;SDS011;8072;52.554;7.966;2023-06-10T03:22:35;7.73;;;4.60;;
15946;SDS011;8072;52.554;7.966;2023-06-10T03:25:01;9.63;;;5.07;;
15946;SDS011;8072;52.554;7.966;2023-06-10T03:27:27;11.20;;;5.40;;
15946;SDS011;8072;52.554;7.966;2023-06-10T03:29:54;7.33;;;4.80;;
15946;SDS011;8072;52.554;7.966;2023-06-10T03:32:20;9.97;;;4.70;;
15946;SDS011;8072;52.554;7.966;2023-06-10T03:34:45;10.60;;;5.27;;
15946;SDS011;8072;52.554;7.966;2023-06-10T03:37:12;8.53;;;5.40;;
15946;SDS011;8072;52.554;7.966;2023-06-10T03:39:38;8.13;;;4.47;;
15946;SDS011;8072;52.554;7.966;2023-06-10T03:42:05;8.47;;;4.60;;
15946;SDS011;8072;52.554;7.966;2023-06-10T03:44:31;7.00;;;4.57;;
15946;SDS011;8072;52.554;7.966;2023-06-10T03:46:57;9.10;;;4.70;;
15946;SDS011;8072;52.554;7.966;2023-06-10T03:49:23;13.07;;;5.20;;
15946;SDS011;8072;52.554;7.966;2023-06-10T03:51:52;12.63;;;5.07;;
15946;SDS011;8072;52.554;7.966;2023-06-10T03:54:19;8.93;;;5.00;;
15946;SDS011;8072;52.554;7.966;2023-06-10T03:56:44;10.67;;;4.97;;
15946;SDS011;8072;52.554;7.966;2023-06-10T03:59:10;9.03;;;4.70;;
15946;SDS011;8072;52.554;7.966;2023-06-10T04:01:36;7.80;;;4.87;;
15946;SDS011;8072;52.554;7.966;2023-06-10T04:04:02;9.00;;;4.57;;
15946;SDS011;8072;52.554;7.966;2023-06-10T04:06:28;8.47;;;4.97;;
15946;SDS011;8072;52.554;7.966;2023-06-10T04:08:55;7.90;;;4.60;;
15946;SDS011;8072;52.554;7.966;2023-06-10T04:11:22;10.50;;;4.77;;
15946;SDS011;8072;52.554;7.966;2023-06-10T04:13:51;6.07;;;4.67;;
15946;SDS011;8072;52.554;7.966;2023-06-10T04:16:17;9.03;;;5.00;;
15946;SDS011;8072;52.554;7.966;2023-06-10T04:18:42;7.03;;;5.00;;
15946;SDS011;8072;52.554;7.966;2023-06-10T04:21:08;9.27;;;5.00;;
15946;SDS011;8072;52.554;7.966;2023-06-10T04:23:35;10.60;;;5.17;;
15946;SDS011;8072;52.554;7.966;2023-06-10T04:26:02;10.10;;;5.03;;
15946;SDS011;8072;52.554;7.966;2023-06-10T04:28:28;10.03;;;5.10;;
15946;SDS011;8072;52.554;7.966;2023-06-10T04:30:53;7.33;;;4.90;;
15946;SDS011;8072;52.554;7.966;2023-06-10T04:33:19;9.13;;;5.30;;
15946;SDS011;8072;52.554;7.966;2023-06-10T04:35:45;9.57;;;4.50;;
15946;SDS011;8072;52.554;7.966;2023-06-10T04:38:12;11.13;;;5.33;;
15946;SDS011;8072;52.554;7.966;2023-06-10T04:40:39;9.43;;;4.83;;
15946;SDS011;8072;52.554;7.966;2023-06-10T04:43:05;13.90;;;5.30;;
15946;SDS011;8072;52.554;7.966;2023-06-10T04:45:31;8.93;;;5.20;;
15946;SDS011;8072;52.554;7.966;2023-06-10T04:47:56;9.43;;;4.70;;
15946;SDS011;8072;52.554;7.966;2023-06-10T04:50:23;14.70;;;5.77;;
15946;SDS011;8072;52.554;7.966;2023-06-10T04:52:49;9.00;;;4.67;;
15946;SDS011;8072;52.554;7.966;2023-06-10T04:55:15;9.77;;;5.70;;
15946;SDS011;8072;52.554;7.966;2023-06-10T04:57:41;9.40;;;5.00;;
15946;SDS011;8072;52.554;7.966;2023-06-10T05:00:07;8.77;;;4.50;;
15946;SDS011;8072;52.554;7.966;2023-06-10T05:02:33;8.87;;;5.10;;
15946;SDS011;8072;52.554;7.966;2023-06-10T05:04:59;11.67;;;6.03;;
15946;SDS011;8072;52.554;7.966;2023-06-10T05:07:25;10.83;;;4.87;;
15946;SDS011;8072;52.554;7.966;2023-06-10T05:09:51;7.97;;;5.23;;
15946;SDS011;8072;52.554;7.966;2023-06-10T05:12:17;8.87;;;5.43;;
15946;SDS011;8072;52.554;7.966;2023-06-10T05:14:42;10.33;;;5.13;;
15946;SDS011;8072;52.554;7.966;2023-06-10T05:17:09;10.10;;;5.23;;
15946;SDS011;8072;52.554;7.966;2023-06-10T05:19:35;9.83;;;5.17;;
15946;SDS011;8072;52.554;7.966;2023-06-10T05:22:02;12.43;;;5.47;;
15946;SDS011;8072;52.554;7.966;2023-06-10T05:24:28;9.57;;;5.10;;
15946;SDS011;8072;52.554;7.966;2023-06-10T05:26:54;9.43;;;5.47;;
15946;SDS011;8072;52.554;7.966;2023-06-10T05:29:20;11.23;;;5.70;;
15946;SDS011;8072;52.554;7.966;2023-06-10T05:31:45;13.10;;;5.67;;
15946;SDS011;8072;52.554;7.966;2023-06-10T05:34:11;8.67;;;5.20;;
15946;SDS011;8072;52.554;7.966;2023-06-10T05:36:37;8.10;;;5.27;;
15946;SDS011;8072;52.554;7.966;2023-06-10T05:39:03;9.87;;;5.27;;
15946;SDS011;8072;52.554;7.966;2023-06-10T05:41:29;10.73;;;5.53;;
15946;SDS011;8072;52.554;7.966;2023-06-10T05:43:55;8.80;;;5.43;;
15946;SDS011;8072;52.554;7.966;2023-06-10T05:46:21;9.60;;;5.60;;
15946;SDS011;8072;52.554;7.966;2023-06-10T05:48:47;11.30;;;5.60;;
15946;SDS011;8072;52.554;7.966;2023-06-10T05:51:13;7.47;;;4.80;;
15946;SDS011;8072;52.554;7.966;2023-06-10T05:53:39;9.23;;;5.63;;
15946;SDS011;8072;52.554;7.966;2023-06-10T05:56:05;10.53;;;5.57;;
15946;SDS011;8072;52.554;7.966;2023-06-10T05:58:30;10.57;;;5.27;;
15946;SDS011;8072;52.554;7.966;2023-06-10T06:00:56;8.20;;;5.80;;
15946;SDS011;8072;52.554;7.966;2023-06-10T06:03:22;12.60;;;5.70;;
15946;SDS011;8072;52.554;7.966;2023-06-10T06:05:48;10.43;;;5.80;;
15946;SDS011;8072;52.554;7.966;2023-06-10T06:08:13;9.33;;;5.90;;
15946;SDS011;8072;52.554;7.966;2023-06-10T06:10:42;9.37;;;5.77;;
15946;SDS011;8072;52.554;7.966;2023-06-10T06:13:08;13.23;;;5.73;;
15946;SDS011;8072;52.554;7.966;2023-06-10T06:15:34;9.37;;;5.30;;
15946;SDS011;8072;52.554;7.966;2023-06-10T06:18:00;10.70;;;6.50;;
15946;SDS011;8072;52.554;7.966;2023-06-10T06:20:25;10.93;;;5.43;;
15946;SDS011;8072;52.554;7.966;2023-06-10T06:22:51;6.63;;;5.20;;
15946;SDS011;8072;52.554;7.966;2023-06-10T06:25:17;12.63;;;5.63;;
15946;SDS011;8072;52.554;7.966;2023-06-10T06:27:43;8.60;;;5.00;;
15946;SDS011;8072;52.554;7.966;2023-06-10T06:30:09;7.50;;;5.70;;
15946;SDS011;8072;52.554;7.966;2023-06-10T06:32:35;8.57;;;6.03;;
15946;SDS011;8072;52.554;7.966;2023-06-10T06:35:01;9.57;;;5.40;;
15946;SDS011;8072;52.554;7.966;2023-06-10T06:37:29;10.70;;;6.20;;
15946;SDS011;8072;52.554;7.966;2023-06-10T06:39:55;11.27;;;5.73;;
15946;SDS011;8072;52.554;7.966;2023-06-10T06:42:20;8.10;;;5.37;;
15946;SDS011;8072;52.554;7.966;2023-06-10T06:44:46;12.13;;;6.00;;
15946;SDS011;8072;52.554;7.966;2023-06-10T06:47:13;13.33;;;5.70;;
15946;SDS011;8072;52.554;7.966;2023-06-10T06:49:38;10.57;;;5.60;;
15946;SDS011;8072;52.554;7.966;2023-06-10T06:52:04;11.73;;;5.33;;
15946;SDS011;8072;52.554;7.966;2023-06-10T06:54:30;12.07;;;6.30;;
15946;SDS011;8072;52.554;7.966;2023-06-10T06:56:56;12.20;;;6.03;;
15946;SDS011;8072;52.554;7.966;2023-06-10T06:59:22;10.70;;;6.85;;
15946;SDS011;8072;52.554;7.966;2023-06-10T07:01:50;9.13;;;5.73;;
15946;SDS011;8072;52.554;7.966;2023-06-10T07:04:19;8.23;;;5.47;;
15946;SDS011;8072;52.554;7.966;2023-06-10T07:06:46;9.15;;;5.35;;
15946;SDS011;8072;52.554;7.966;2023-06-10T07:09:12;9.40;;;5.20;;
15946;SDS011;8072;52.554;7.966;2023-06-10T07:11:38;10.40;;;5.78;;
15946;SDS011;8072;52.554;7.966;2023-06-10T07:14:04;7.73;;;5.40;;
15946;SDS011;8072;52.554;7.966;2023-06-10T07:16:30;12.18;;;5.63;;
15946;SDS011;8072;52.554;7.966;2023-06-10T07:18:56;9.35;;;5.78;;
15946;SDS011;8072;52.554;7.966;2023-06-10T07:21:22;10.07;;;6.35;;
15946;SDS011;8072;52.554;7.966;2023-06-10T07:23:48;9.10;;;5.35;;
15946;SDS011;8072;52.554;7.966;2023-06-10T07:26:14;13.43;;;5.88;;
15946;SDS011;8072;52.554;7.966;2023-06-10T07:28:40;12.70;;;6.15;;
15946;SDS011;8072;52.554;7.966;2023-06-10T07:31:07;8.00;;;5.15;;
15946;SDS011;8072;52.554;7.966;2023-06-10T07:33:33;11.77;;;6.22;;
15946;SDS011;8072;52.554;7.966;2023-06-10T07:35:59;10.07;;;5.50;;
15946;SDS011;8072;52.554;7.966;2023-06-10T07:38:25;9.18;;;6.10;;
15946;SDS011;8072;52.554;7.966;2023-06-10T07:40:51;9.75;;;6.53;;
15946;SDS011;8072;52.554;7.966;2023-06-10T07:43:17;8.98;;;5.55;;
15946;SDS011;8072;52.554;7.966;2023-06-10T07:45:43;8.55;;;5.50;;
15946;SDS011;8072;52.554;7.966;2023-06-10T07:48:11;10.13;;;6.28;;
15946;SDS011;8072;52.554;7.966;2023-06-10T07:50:36;10.70;;;6.20;;
15946;SDS011;8072;52.554;7.966;2023-06-10T07:53:02;12.68;;;5.95;;
15946;SDS011;8072;52.554;7.966;2023-06-10T07:55:29;12.55;;;5.78;;
15946;SDS011;8072;52.554;7.966;2023-06-10T07:57:55;9.07;;;5.05;;
15946;SDS011;8072;52.554;7.966;2023-06-10T08:00:21;9.15;;;5.32;;
15946;SDS011;8072;52.554;7.966;2023-06-10T08:02:46;9.95;;;5.57;;
15946;SDS011;8072;52.554;7.966;2023-06-10T08:05:12;8.93;;;5.70;;
15946;SDS011;8072;52.554;7.966;2023-06-10T08:07:39;11.20;;;5.50;;
15946;SDS011;8072;52.554;7.966;2023-06-10T08:10:05;11.85;;;6.43;;
15946;SDS011;8072;52.554;7.966;2023-06-10T08:12:32;10.65;;;5.15;;
15946;SDS011;8072;52.554;7.966;2023-06-10T08:14:59;10.63;;;5.60;;
15946;SDS011;8072;52.554;7.966;2023-06-10T08:17:25;8.50;;;5.50;;
15946;SDS011;8072;52.554;7.966;2023-06-10T08:19:50;7.35;;;4.78;;
15946;SDS011;8072;52.554;7.966;2023-06-10T08:22:16;8.55;;;5.50;;
15946;SDS011;8072;52.554;7.966;2023-06-10T08:24:42;14.95;;;4.68;;
15946;SDS011;8072;52.554;7.966;2023-06-10T08:27:08;11.32;;;5.13;;
15946;SDS011;8072;52.554;7.966;2023-06-10T08:29:35;8.10;;;5.00;;
15946;SDS011;8072;52.554;7.966;2023-06-10T08:32:01;8.07;;;4.72;;
15946;SDS011;8072;52.554;7.966;2023-06-10T08:34:26;8.23;;;4.57;;
15946;SDS011;8072;52.554;7.966;2023-06-10T08:36:52;8.77;;;5.15;;
15946;SDS011;8072;52.554;7.966;2023-06-10T08:39:20;9.23;;;4.53;;
15946;SDS011;8072;52.554;7.966;2023-06-10T08:41:51;9.95;;;4.78;;
15946;SDS011;8072;52.554;7.966;2023-06-10T08:44:26;9.10;;;4.68;;
15946;SDS011;8072;52.554;7.966;2023-06-10T08:46:55;10.75;;;4.65;;
15946;SDS011;8072;52.554;7.966;2023-06-10T08:49:24;11.27;;;5.18;;
15946;SDS011;8072;52.554;7.966;2023-06-10T08:51:54;10.07;;;4.80;;
15946;SDS011;8072;52.554;7.966;2023-06-10T08:54:28;10.50;;;4.30;;
15946;SDS011;8072;52.554;7.966;2023-06-10T08:56:57;9.85;;;5.05;;
15946;SDS011;8072;52.554;7.966;2023-06-10T08:59:25;9.60;;;4.53;;
15946;SDS011;8072;52.554;7.966;2023-06-10T09:01:52;10.30;;;4.72;;
15946;SDS011;8072;52.554;7.966;2023-06-10T09:04:19;8.00;;;4.72;;
15946;SDS011;8072;52.554;7.966;2023-06-10T09:06:45;9.75;;;4.95;;
15946;SDS011;8072;52.554;7.966;2023-06-10T09:09:14;9.18;;;4.70;;
15946;SDS011;8072;52.554;7.966;2023-06-10T09:11:42;8.18;;;4.85;;
15946;SDS011;8072;52.554;7.966;2023-06-10T09:14:08;6.10;;;4.72;;
15946;SDS011;8072;52.554;7.966;2023-06-10T09:16:34;9.48;;;5.38;;
15946;SDS011;8072;52.554;7.966;2023-06-10T09:19:01;6.95;;;4.50;;
15946;SDS011;8072;52.554;7.966;2023-06-10T09:21:33;7.50;;;4.47;;
15946;SDS011;8072;52.554;7.966;2023-06-10T09:24:00;7.97;;;5.00;;
15946;SDS011;8072;52.554;7.966;2023-06-10T09:26:29;9.25;;;5.22;;
15946;SDS011;8072;52.554;7.966;2023-06-10T09:29:02;14.25;;;5.80;;
15946;SDS011;8072;52.554;7.966;2023-06-10T09:31:30;8.18;;;5.00;;
15946;SDS011;8072;52.554;7.966;2023-06-10T09:34:09;9.82;;;4.65;;
15946;SDS011;8072;52.554;7.966;2023-06-10T09:36:37;9.73;;;4.63;;
15946;SDS011;8072;52.554;7.966;2023-06-10T09:39:04;6.85;;;4.63;;
15946;SDS011;8072;52.554;7.966;2023-06-10T09:41:39;8.30;;;4.82;;
15946;SDS011;8072;52.554;7.966;2023-06-10T09:44:12;8.32;;;4.75;;
15946;SDS011;8072;52.554;7.966;2023-06-10T09:46:40;8.30;;;5.10;;
15946;SDS011;8072;52.554;7.966;2023-06-10T09:49:06;8.55;;;4.75;;
15946;SDS011;8072;52.554;7.966;2023-06-10T09:51:32;6.30;;;5.00;;
15946;SDS011;8072;52.554;7.966;2023-06-10T09:53:58;6.82;;;4.30;;
15946;SDS011;8072;52.554;7.966;2023-06-10T09:56:36;15.68;;;6.07;;
15946;SDS011;8072;52.554;7.966;2023-06-10T09:59:03;13.65;;;5.30;;
15946;SDS011;8072;52.554;7.966;2023-06-10T10:01:31;9.02;;;5.20;;
15946;SDS011;8072;52.554;7.966;2023-06-10T10:03:58;7.80;;;4.70;;
15946;SDS011;8072;52.554;7.966;2023-06-10T10:06:25;10.25;;;5.00;;
15946;SDS011;8072;52.554;7.966;2023-06-10T10:08:51;8.32;;;4.78;;
15946;SDS011;8072;52.554;7.966;2023-06-10T10:11:18;8.73;;;4.55;;
15946;SDS011;8072;52.554;7.966;2023-06-10T10:13:47;8.45;;;4.68;;
15946;SDS011;8072;52.554;7.966;2023-06-10T10:16:16;7.07;;;4.65;;
15946;SDS011;8072;52.554;7.966;2023-06-10T10:18:59;13.82;;;4.35;;
15946;SDS011;8072;52.554;7.966;2023-06-10T10:21:32;7.70;;;4.78;;
15946;SDS011;8072;52.554;7.966;2023-06-10T10:26:47;6.43;;;4.72;;
15946;SDS011;8072;52.554;7.966;2023-06-10T10:31:59;7.28;;;4.85;;
15946;SDS011;8072;52.554;7.966;2023-06-10T10:34:48;11.43;;;4.90;;
15946;SDS011;8072;52.554;7.966;2023-06-10T10:37:17;8.25;;;4.13;;
15946;SDS011;8072;52.554;7.966;2023-06-10T10:39:45;8.30;;;4.80;;
15946;SDS011;8072;52.554;7.966;2023-06-10T10:42:11;7.93;;;4.38;;
15946;SDS011;8072;52.554;7.966;2023-06-10T10:44:38;9.27;;;4.90;;
15946;SDS011;8072;52.554;7.966;2023-06-10T10:47:06;8.18;;;4.65;;
15946;SDS011;8072;52.554;7.966;2023-06-10T10:49:34;6.82;;;4.30;;
15946;SDS011;8072;52.554;7.966;2023-06-10T10:52:02;5.90;;;3.97;;
15946;SDS011;8072;52.554;7.966;2023-06-10T10:54:32;7.57;;;4.07;;
15946;SDS011;8072;52.554;7.966;2023-06-10T10:57:18;13.23;;;4.13;;
15946;SDS011;8072;52.554;7.966;2023-06-10T11:02:17;8.05;;;3.85;;
15946;SDS011;8072;52.554;7.966;2023-06-10T11:05:06;5.07;;;3.20;;
15946;SDS011;8072;52.554;7.966;2023-06-10T11:07:33;4.40;;;3.28;;
15946;SDS011;8072;52.554;7.966;2023-06-10T11:10:05;4.65;;;3.50;;
15946;SDS011;8072;52.554;7.966;2023-06-10T11:12:50;5.80;;;3.60;;
15946;SDS011;8072;52.554;7.966;2023-06-10T11:15:21;7.30;;;3.70;;
15946;SDS011;8072;52.554;7.966;2023-06-10T11:23:37;5.55;;;3.63;;
15946;SDS011;8072;52.554;7.966;2023-06-10T11:36:26;4.45;;;3.70;;
15946;SDS011;8072;52.554;7.966;2023-06-10T11:38:55;4.15;;;3.30;;
15946;SDS011;8072;52.554;7.966;2023-06-10T11:41:23;4.40;;;3.40;;
15946;SDS011;8072;52.554;7.966;2023-06-10T11:43:54;6.25;;;4.00;;
15946;SDS011;8072;52.554;7.966;2023-06-10T11:46:23;6.15;;;3.83;;
15946;SDS011;8072;52.554;7.966;2023-06-10T11:48:54;4.07;;;3.20;;
15946;SDS011;8072;52.554;7.966;2023-06-10T11:51:20;4.13;;;3.05;;
15946;SDS011;8072;52.554;7.966;2023-06-10T11:53:49;5.13;;;3.28;;
15946;SDS011;8072;52.554;7.966;2023-06-10T11:56:22;5.15;;;3.42;;
15946;SDS011;8072;52.554;7.966;2023-06-10T11:58:56;5.35;;;3.28;;
15946;SDS011;8072;52.554;7.966;2023-06-10T12:01:38;6.55;;;3.22;;
15946;SDS011;8072;52.554;7.966;2023-06-10T12:04:08;3.67;;;2.92;;
15946;SDS011;8072;52.554;7.966;2023-06-10T12:09:19;5.95;;;3.05;;
15946;SDS011;8072;52.554;7.966;2023-06-10T12:11:51;5.82;;;3.58;;
15946;SDS011;8072;52.554;7.966;2023-06-10T12:20:02;5.00;;;3.30;;
15946;SDS011;8072;52.554;7.966;2023-06-10T12:22:40;6.88;;;3.78;;
15946;SDS011;8072;52.554;7.966;2023-06-10T12:25:07;4.90;;;3.13;;
15946;SDS011;8072;52.554;7.966;2023-06-10T12:27:34;5.00;;;3.00;;
15946;SDS011;8072;52.554;7.966;2023-06-10T12:30:02;5.93;;;3.35;;
15946;SDS011;8072;52.554;7.966;2023-06-10T12:32:40;5.10;;;3.00;;
15946;SDS011;8072;52.554;7.966;2023-06-10T12:35:08;8.43;;;2.97;;
15946;SDS011;8072;52.554;7.966;2023-06-10T12:37:35;5.10;;;3.25;;
15946;SDS011;8072;52.554;7.966;2023-06-10T12:40:04;6.25;;;3.45;;
15946;SDS011;8072;52.554;7.966;2023-06-10T12:42:37;5.10;;;2.95;;
15946;SDS011;8072;52.554;7.966;2023-06-10T12:45:04;5.45;;;3.15;;
15946;SDS011;8072;52.554;7.966;2023-06-10T12:47:33;5.75;;;3.45;;
15946;SDS011;8072;52.554;7.966;2023-06-10T12:50:04;5.38;;;3.10;;
15946;SDS011;8072;52.554;7.966;2023-06-10T12:52:30;4.15;;;3.10;;
15946;SDS011;8072;52.554;7.966;2023-06-10T12:54:57;4.53;;;3.03;;
15946;SDS011;8072;52.554;7.966;2023-06-10T12:57:23;5.68;;;3.47;;
15946;SDS011;8072;52.554;7.966;2023-06-10T12:59:50;4.00;;;3.20;;
15946;SDS011;8072;52.554;7.966;2023-06-10T13:02:20;4.13;;;3.13;;
15946;SDS011;8072;52.554;7.966;2023-06-10T13:04:48;3.65;;;3.00;;
15946;SDS011;8072;52.554;7.966;2023-06-10T13:07:15;4.55;;;3.13;;
15946;SDS011;8072;52.554;7.966;2023-06-10T13:09:42;4.65;;;3.35;;
15946;SDS011;8072;52.554;7.966;2023-06-10T13:12:08;6.65;;;3.33;;
15946;SDS011;8072;52.554;7.966;2023-06-10T13:14:35;3.92;;;3.13;;
15946;SDS011;8072;52.554;7.966;2023-06-10T13:17:02;4.10;;;3.17;;
15946;SDS011;8072;52.554;7.966;2023-06-10T13:19:31;4.13;;;3.10;;
15946;SDS011;8072;52.554;7.966;2023-06-10T13:21:57;3.85;;;3.35;;
15946;SDS011;8072;52.554;7.966;2023-06-10T13:24:23;3.40;;;3.08;;
15946;SDS011;8072;52.554;7.966;2023-06-10T13:26:49;5.47;;;3.35;;
15946;SDS011;8072;52.554;7.966;2023-06-10T13:29:15;5.20;;;3.00;;
15946;SDS011;8072;52.554;7.966;2023-06-10T13:31:40;4.95;;;2.95;;
15946;SDS011;8072;52.554;7.966;2023-06-10T13:34:07;5.75;;;3.25;;
15946;SDS011;8072;52.554;7.966;2023-06-10T13:36:33;5.85;;;3.35;;
15946;SDS011;8072;52.554;7.966;2023-06-10T13:38:59;4.38;;;3.28;;
15946;SDS011;8072;52.554;7.966;2023-06-10T13:41:27;4.97;;;3.60;;
15946;SDS011;8072;52.554;7.966;2023-06-10T13:43:54;5.95;;;3.60;;
15946;SDS011;8072;52.554;7.966;2023-06-10T13:46:20;5.10;;;3.10;;
15946;SDS011;8072;52.554;7.966;2023-06-10T13:48:47;6.97;;;3.47;;
15946;SDS011;8072;52.554;7.966;2023-06-10T13:51:13;4.60;;;3.45;;
15946;SDS011;8072;52.554;7.966;2023-06-10T13:53:38;4.05;;;3.00;;
15946;SDS011;8072;52.554;7.966;2023-06-10T13:56:04;5.15;;;3.22;;
15946;SDS011;8072;52.554;7.966;2023-06-10T13:58:30;3.85;;;2.90;;
15946;SDS011;8072;52.554;7.966;2023-06-10T14:00:56;5.57;;;3.40;;
15946;SDS011;8072;52.554;7.966;2023-06-10T14:03:23;3.25;;;2.88;;
15946;SDS011;8072;52.554;7.966;2023-06-10T14:05:49;4.45;;;3.47;;
15946;SDS011;8072;52.554;7.966;2023-06-10T14:08:15;5.47;;;3.22;;
15946;SDS011;8072;52.554;7.966;2023-06-10T14:10:42;4.10;;;3.20;;
15946;SDS011;8072;52.554;7.966;2023-06-10T14:13:08;4.68;;;3.58;;
15946;SDS011;8072;52.554;7.966;2023-06-10T14:15:34;4.95;;;3.08;;
15946;SDS011;8072;52.554;7.966;2023-06-10T14:18:00;5.05;;;3.58;;
15946;SDS011;8072;52.554;7.966;2023-06-10T14:20:26;6.18;;;3.63;;
15946;SDS011;8072;52.554;7.966;2023-06-10T14:22:56;4.28;;;3.42;;
15946;SDS011;8072;52.554;7.966;2023-06-10T14:25:23;7.93;;;3.45;;
15946;SDS011;8072;52.554;7.966;2023-06-10T14:27:49;6.82;;;3.80;;
15946;SDS011;8072;52.554;7.966;2023-06-10T14:30:15;5.50;;;3.75;;
15946;SDS011;8072;52.554;7.966;2023-06-10T14:32:41;4.68;;;2.90;;
15946;SDS011;8072;52.554;7.966;2023-06-10T14:35:08;7.60;;;3.80;;
15946;SDS011;8072;52.554;7.966;2023-06-10T14:37:34;6.40;;;3.63;;
15946;SDS011;8072;52.554;7.966;2023-06-10T14:40:00;7.10;;;3.58;;
15946;SDS011;8072;52.554;7.966;2023-06-10T14:42:25;5.75;;;3.45;;
15946;SDS011;8072;52.554;7.966;2023-06-10T14:44:51;5.25;;;3.10;;
15946;SDS011;8072;52.554;7.966;2023-06-10T14:47:17;5.57;;;3.45;;
15946;SDS011;8072;52.554;7.966;2023-06-10T14:49:43;5.32;;;3.85;;
15946;SDS011;8072;52.554;7.966;2023-06-10T14:52:09;5.43;;;3.58;;
15946;SDS011;8072;52.554;7.966;2023-06-10T14:54:35;6.85;;;3.83;;
15946;SDS011;8072;52.554;7.966;2023-06-10T14:57:01;5.35;;;4.03;;
15946;SDS011;8072;52.554;7.966;2023-06-10T14:59:26;6.97;;;3.58;;
15946;SDS011;8072;52.554;7.966;2023-06-10T15:01:52;5.07;;;3.90;;
15946;SDS011;8072;52.554;7.966;2023-06-10T15:04:18;4.85;;;3.53;;
15946;SDS011;8072;52.554;7.966;2023-06-10T15:06:44;5.78;;;4.00;;
15946;SDS011;8072;52.554;7.966;2023-06-10T15:09:10;5.32;;;4.03;;
15946;SDS011;8072;52.554;7.966;2023-06-10T15:11:35;4.53;;;3.22;;
15946;SDS011;8072;52.554;7.966;2023-06-10T15:14:03;6.72;;;3.90;;
15946;SDS011;8072;52.554;7.966;2023-06-10T15:16:29;6.88;;;4.15;;
15946;SDS011;8072;52.554;7.966;2023-06-10T15:18:55;7.00;;;4.32;;
15946;SDS011;8072;52.554;7.966;2023-06-10T15:21:21;5.72;;;3.90;;
15946;SDS011;8072;52.554;7.966;2023-06-10T15:23:47;6.30;;;4.10;;
15946;SDS011;8072;52.554;7.966;2023-06-10T15:26:12;5.38;;;4.07;;
15946;SDS011;8072;52.554;7.966;2023-06-10T15:28:38;5.32;;;4.10;;
15946;SDS011;8072;52.554;7.966;2023-06-10T15:31:04;5.30;;;4.10;;
15946;SDS011;8072;52.554;7.966;2023-06-10T15:33:30;4.63;;;3.53;;